MLB weather

Melbourne International Airport
Melbourne, Florida, United States

Public forecast

Using degrees Fahrenheit for public forecast. Weather courtesy of forecast.io.

METAR (pilot weather report)

Retrieved 2019/08/26 07:53 UTC (49 minutes ago):

KMLB 260753Z AUTO 01006KT 10SM CLR 27/24 A2993 RMK AO2 SLP136 T02720244

TAF (pilot weather forecast)

Retrieved 2019/08/26 06:39 UTC (2 hours ago):

TAF KMLB 260537Z 2606/2706 01004KT P6SM SKC FM261400 06005KT P6SM SCT025 SCT200 FM261800 09010KT P6SM VCTS SCT040CB BKN060 BKN250 FM262000 10009KT P6SM FEW030 FM270100 VRB02KT P6SM SCT250